Al Hamla — V7MX9 — position and weather

sailwx.info

Track history (hours):
 
Tides and Currents Weather Stations Pressure Air Temp Water Temp Dewpoint Dewpoint Depression Visibility Wind Speed Wind Dir Waves Ship Positions

Al Hamla

Last reported at 2017-Apr-30 13:38 UTC. Time now 2017-Apr-30 20:32 UTC.
Position N 35°56' E 016°03'.

Length 315 m; draft 9.7 m.

Type: Tanker. MMSI: 538002922.

Date/timePositionNaut miles runAvg speedWind from/ knotsBaromVisibWave heightAir tempDewpointWater temp
2017-Apr-30 13:38N 35°56' E 016°03'318.9
2017-Apr-30 13:28N 35°57' E 015°59'1019.2
2017-Apr-30 12:56N 35°60' E 015°47'919.1
2017-Apr-30 12:28N 36°02' E 015°36'919.0
2017-Apr-30 12:00N 36°05' E 015°26'919.1
2017-Apr-30 11:30N 36°07' E 015°15'1019.1
2017-Apr-30 11:00N 36°11' E 015°03'1019.2
2017-Apr-30 10:31N 36°14' E 014°52'1019.2
2017-Apr-30 10:00N 36°17' E 014°41'1019.4
2017-Apr-30 09:30N 36°20' E 014°29'1019.8
2017-Apr-30 09:01N 36°23' E 014°18'1020.0
2017-Apr-30 08:30N 36°26' E 014°06'1019.5
2017-Apr-30 08:00N 36°29' E 013°54'1019.6
2017-Apr-30 07:31N 36°31' E 013°43'1019.3
2017-Apr-30 07:00N 36°34' E 013°31'1019.5
2017-Apr-30 06:30N 36°37' E 013°19'1019.7
2017-Apr-30 06:00N 36°40' E 013°07'1519.9
2017-Apr-30 05:13N 36°45' E 012°49'420.2
2017-Apr-30 05:00N 36°46' E 012°44'85418.3
2017-Apr-28 06:17N 36°01' W 004°55'619.0
2017-Apr-28 05:58N 36°00' W 005°02'918.9
2017-Apr-28 05:30N 35°59' W 005°13'1019.6
2017-Apr-28 05:01N 35°58' W 005°25'1019.5
2017-Apr-28 04:30N 35°55' W 005°37'1020.2
2017-Apr-28 04:00N 35°54' W 005°49'26115.2
2017-Apr-27 10:52N 38°07' W 010°30'719.1
2017-Apr-27 10:30N 38°14' W 010°32'68018.2
2017-Apr-25 21:09N 48°59' W 005°36'9818.7
2017-Apr-25 15:57N 49°47' W 003°25'818.4
2017-Apr-25 15:30N 49°51' W 003°15'1019.1
2017-Apr-25 15:00N 49°57' W 003°03'1020.0
2017-Apr-25 14:30N 50°00' W 002°48'9521.3
2017-Apr-25 10:04N 50°27' W 000°26'118.6
2017-Apr-25 10:00N 50°27' W 000°24'918.6
2017-Apr-25 09:31N 50°30' W 000°10'917.9
2017-Apr-25 09:00N 50°32' E 000°03'917.4
2017-Apr-25 08:31N 50°33' E 000°17'917.1
2017-Apr-25 08:00N 50°36' E 000°30'917.4
2017-Apr-25 07:30N 50°41' E 000°41'918.2
2017-Apr-25 07:01N 50°46' E 000°53'1319.5
2017-Apr-25 06:22N 50°53' E 001°09'720.8
2017-Apr-25 06:00N 50°59' E 001°17'1121.5
2017-Apr-25 05:30N 51°06' E 001°30'1121.1
2017-Apr-25 05:01N 51°12' E 001°43'1020.2
2017-Apr-25 04:31N 51°21' E 001°51'918.7
2017-Apr-25 04:01N 51°29' E 001°59'918.3
2017-Apr-25 03:31N 51°35' E 002°11'918.0
2017-Apr-25 03:00N 51°42' E 002°20'917.6
2017-Apr-25 02:30N 51°49' E 002°29'917.1
2017-Apr-25 02:00N 51°57' E 002°35'917.4
2017-Apr-25 01:29N 52°06' E 002°36'817.0
2017-Apr-25 01:00N 52°14' E 002°38'917.2
2017-Apr-25 00:29N 52°22' E 002°45'817.6
2017-Apr-25 00:00N 52°29' E 002°51'917.9
2017-Apr-24 23:30N 52°37' E 002°58'918.5
2017-Apr-24 22:59N 52°45' E 003°06'1019.1
2017-Apr-24 22:29N 52°54' E 003°14'1019.1
2017-Apr-24 21:59N 53°03' E 003°20'1219.5
2017-Apr-24 21:22N 53°14' E 003°26'1119.4
2017-Apr-24 20:48N 53°24' E 003°31'3417.6
2017-Apr-24 18:53N 53°53' E 004°02'616.9
2017-Apr-24 18:30N 53°56' E 004°11'816.1
2017-Apr-24 18:00N 54°01' E 004°22'912.0
2017-Apr-24 17:14N 54°08' E 004°32'414.4
2017-Apr-24 16:59N 54°11' E 004°35'1016.1
2017-Apr-24 16:21N 54°20' E 004°43'718.5
2017-Apr-24 15:59N 54°26' E 004°49'918.6
2017-Apr-24 15:29N 54°34' E 004°57'918.8
2017-Apr-24 15:00N 54°42' E 005°04'1118.9
2017-Apr-24 14:24N 54°52' E 005°13'2318.7
2017-Apr-24 13:11N 55°12' E 005°33'418.7
2017-Apr-24 12:58N 55°16' E 005°36'15916.7
2017-Apr-24 03:29N 57°24' E 008°24'6315.3
2017-Apr-23 23:21N 57°51' E 010°11'515.6
2017-Apr-23 23:00N 57°52' E 010°21'815.7
2017-Apr-23 22:30N 57°51' E 010°36'815.1
2017-Apr-23 22:00N 57°48' E 010°49'611.1
2017-Apr-23 21:30N 57°44' E 010°55'715.1
2017-Apr-23 21:00N 57°38' E 011°05'815.9
2017-Apr-23 20:29N 57°32' E 011°16'715.9
2017-Apr-23 20:00N 57°27' E 011°26'816.4
2017-Apr-23 19:30N 57°19' E 011°31'916.5
2017-Apr-23 18:56N 57°11' E 011°37'716.2
2017-Apr-23 18:29N 57°04' E 011°42'6015.1
2017-Apr-23 14:29N 56°06' E 011°10'4514.2
2017-Apr-23 11:17N 55°21' E 011°03'413.7
2017-Apr-23 11:00N 55°17' E 011°04'612.3
2017-Apr-23 10:30N 55°11' E 011°03'713.7
2017-Apr-23 10:00N 55°05' E 010°60'713.8
2017-Apr-23 09:31N 54°58' E 010°57'714.1
2017-Apr-23 09:00N 54°52' E 010°50'612.4
2017-Apr-23 08:30N 54°46' E 010°48'612.6
2017-Apr-23 08:00N 54°40' E 010°49'714.7
2017-Apr-23 07:31N 54°36' E 011°01'714.7
2017-Apr-23 07:00N 54°35' E 011°13'815.5
2017-Apr-23 06:31N 54°31' E 011°25'815.4
2017-Apr-23 06:00N 54°28' E 011°37'714.4
2017-Apr-23 05:30N 54°26' E 011°49'914.5
2017-Apr-23 04:51N 54°26' E 012°05'513.7
2017-Apr-23 04:30N 54°28' E 012°12'815.7
2017-Apr-23 04:01N 54°36' E 012°16'510.1
2017-Apr-23 03:30N 54°40' E 012°21'4014.7
2017-Apr-23 00:48N 54°47' E 013°28'613.7
2017-Apr-23 00:23N 54°44' E 013°37'715.3
2017-Apr-22 23:55N 54°37' E 013°43'715.7
2017-Apr-22 23:30N 54°31' E 013°48'713.8
2017-Apr-22 22:59N 54°25' E 013°54'611.8
2017-Apr-22 22:30N 54°20' E 013°59'  
Track history (hours):
 
Tides and Currents Weather Stations Pressure Air Temp Water Temp Dewpoint Dewpoint Depression Visibility Wind Speed Wind Dir Waves Ship Positions

Al Hamla

Last reported at 2017-Apr-30 13:38 UTC. Time now 2017-Apr-30 20:32 UTC.
Position N 35°56' E 016°03'.

Length 315 m; draft 9.7 m.

Type: Tanker. MMSI: 538002922.

Date/timePositionNaut miles runAvg speedWind from/ knotsBaromVisibWave heightAir tempDewpointWater temp
2017-Apr-30 13:38N 35°56' E 016°03'318.9
2017-Apr-30 13:28N 35°57' E 015°59'1019.2
2017-Apr-30 12:56N 35°60' E 015°47'919.1
2017-Apr-30 12:28N 36°02' E 015°36'919.0
2017-Apr-30 12:00N 36°05' E 015°26'919.1
2017-Apr-30 11:30N 36°07' E 015°15'1019.1
2017-Apr-30 11:00N 36°11' E 015°03'1019.2
2017-Apr-30 10:31N 36°14' E 014°52'1019.2
2017-Apr-30 10:00N 36°17' E 014°41'1019.4
2017-Apr-30 09:30N 36°20' E 014°29'1019.8
2017-Apr-30 09:01N 36°23' E 014°18'1020.0
2017-Apr-30 08:30N 36°26' E 014°06'1019.5
2017-Apr-30 08:00N 36°29' E 013°54'1019.6
2017-Apr-30 07:31N 36°31' E 013°43'1019.3
2017-Apr-30 07:00N 36°34' E 013°31'1019.5
2017-Apr-30 06:30N 36°37' E 013°19'1019.7
2017-Apr-30 06:00N 36°40' E 013°07'1519.9
2017-Apr-30 05:13N 36°45' E 012°49'420.2
2017-Apr-30 05:00N 36°46' E 012°44'85418.3
2017-Apr-28 06:17N 36°01' W 004°55'619.0
2017-Apr-28 05:58N 36°00' W 005°02'918.9
2017-Apr-28 05:30N 35°59' W 005°13'1019.6
2017-Apr-28 05:01N 35°58' W 005°25'1019.5
2017-Apr-28 04:30N 35°55' W 005°37'1020.2
2017-Apr-28 04:00N 35°54' W 005°49'26115.2
2017-Apr-27 10:52N 38°07' W 010°30'719.1
2017-Apr-27 10:30N 38°14' W 010°32'68018.2
2017-Apr-25 21:09N 48°59' W 005°36'9818.7
2017-Apr-25 15:57N 49°47' W 003°25'818.4
2017-Apr-25 15:30N 49°51' W 003°15'1019.1
2017-Apr-25 15:00N 49°57' W 003°03'1020.0
2017-Apr-25 14:30N 50°00' W 002°48'9521.3
2017-Apr-25 10:04N 50°27' W 000°26'118.6
2017-Apr-25 10:00N 50°27' W 000°24'918.6
2017-Apr-25 09:31N 50°30' W 000°10'917.9
2017-Apr-25 09:00N 50°32' E 000°03'917.4
2017-Apr-25 08:31N 50°33' E 000°17'917.1
2017-Apr-25 08:00N 50°36' E 000°30'917.4
2017-Apr-25 07:30N 50°41' E 000°41'918.2
2017-Apr-25 07:01N 50°46' E 000°53'1319.5
2017-Apr-25 06:22N 50°53' E 001°09'720.8
2017-Apr-25 06:00N 50°59' E 001°17'1121.5
2017-Apr-25 05:30N 51°06' E 001°30'1121.1
2017-Apr-25 05:01N 51°12' E 001°43'1020.2
2017-Apr-25 04:31N 51°21' E 001°51'918.7
2017-Apr-25 04:01N 51°29' E 001°59'918.3
2017-Apr-25 03:31N 51°35' E 002°11'918.0
2017-Apr-25 03:00N 51°42' E 002°20'917.6
2017-Apr-25 02:30N 51°49' E 002°29'917.1
2017-Apr-25 02:00N 51°57' E 002°35'917.4
2017-Apr-25 01:29N 52°06' E 002°36'817.0
2017-Apr-25 01:00N 52°14' E 002°38'917.2
2017-Apr-25 00:29N 52°22' E 002°45'817.6
2017-Apr-25 00:00N 52°29' E 002°51'917.9
2017-Apr-24 23:30N 52°37' E 002°58'918.5
2017-Apr-24 22:59N 52°45' E 003°06'1019.1
2017-Apr-24 22:29N 52°54' E 003°14'1019.1
2017-Apr-24 21:59N 53°03' E 003°20'1219.5
2017-Apr-24 21:22N 53°14' E 003°26'1119.4
2017-Apr-24 20:48N 53°24' E 003°31'3417.6
2017-Apr-24 18:53N 53°53' E 004°02'616.9
2017-Apr-24 18:30N 53°56' E 004°11'816.1
2017-Apr-24 18:00N 54°01' E 004°22'912.0
2017-Apr-24 17:14N 54°08' E 004°32'414.4
2017-Apr-24 16:59N 54°11' E 004°35'1016.1
2017-Apr-24 16:21N 54°20' E 004°43'718.5
2017-Apr-24 15:59N 54°26' E 004°49'918.6
2017-Apr-24 15:29N 54°34' E 004°57'918.8
2017-Apr-24 15:00N 54°42' E 005°04'1118.9
2017-Apr-24 14:24N 54°52' E 005°13'2318.7
2017-Apr-24 13:11N 55°12' E 005°33'418.7
2017-Apr-24 12:58N 55°16' E 005°36'15916.7
2017-Apr-24 03:29N 57°24' E 008°24'6315.3
2017-Apr-23 23:21N 57°51' E 010°11'515.6
2017-Apr-23 23:00N 57°52' E 010°21'815.7
2017-Apr-23 22:30N 57°51' E 010°36'815.1
2017-Apr-23 22:00N 57°48' E 010°49'611.1
2017-Apr-23 21:30N 57°44' E 010°55'715.1
2017-Apr-23 21:00N 57°38' E 011°05'815.9
2017-Apr-23 20:29N 57°32' E 011°16'715.9
2017-Apr-23 20:00N 57°27' E 011°26'816.4
2017-Apr-23 19:30N 57°19' E 011°31'916.5
2017-Apr-23 18:56N 57°11' E 011°37'716.2
2017-Apr-23 18:29N 57°04' E 011°42'6015.1
2017-Apr-23 14:29N 56°06' E 011°10'4514.2
2017-Apr-23 11:17N 55°21' E 011°03'413.7
2017-Apr-23 11:00N 55°17' E 011°04'612.3
2017-Apr-23 10:30N 55°11' E 011°03'713.7
2017-Apr-23 10:00N 55°05' E 010°60'713.8
2017-Apr-23 09:31N 54°58' E 010°57'714.1
2017-Apr-23 09:00N 54°52' E 010°50'612.4
2017-Apr-23 08:30N 54°46' E 010°48'612.6
2017-Apr-23 08:00N 54°40' E 010°49'714.7
2017-Apr-23 07:31N 54°36' E 011°01'714.7
2017-Apr-23 07:00N 54°35' E 011°13'815.5
2017-Apr-23 06:31N 54°31' E 011°25'815.4
2017-Apr-23 06:00N 54°28' E 011°37'714.4
2017-Apr-23 05:30N 54°26' E 011°49'914.5
2017-Apr-23 04:51N 54°26' E 012°05'513.7
2017-Apr-23 04:30N 54°28' E 012°12'815.7
2017-Apr-23 04:01N 54°36' E 012°16'510.1
2017-Apr-23 03:30N 54°40' E 012°21'4014.7
2017-Apr-23 00:48N 54°47' E 013°28'613.7
2017-Apr-23 00:23N 54°44' E 013°37'715.3
2017-Apr-22 23:55N 54°37' E 013°43'715.7
2017-Apr-22 23:30N 54°31' E 013°48'713.8
2017-Apr-22 22:59N 54°25' E 013°54'611.8
2017-Apr-22 22:30N 54°20' E 013°59'  

Dump ship's entire track history